Time;durP1;ratioP1;P1;durP2;ratioP2;P2;SDS_P1;SDS_P2;PMS_P1;PMS_P2;Temp;Humidity;BMP_temperature;BMP_pressure;BME280_temperature;BME280_humidity;BME280_pressure;Samples;Min_cycle;Max_cycle;Signal;HPM_P1;HPM_P2
2023/07/03 00:01:07;;;;;;;12.73;3.53;;;15.10;87.70;;;;;;4967037;28;20119;-67
2023/07/03 00:03:33;;;;;;;10.18;2.88;;;15.10;87.40;;;;;;4984683;28;20054;-66
2023/07/03 00:06:00;;;;;;;9.93;2.70;;;15.10;87.30;;;;;;4969139;28;20417;-66
2023/07/03 00:08:26;;;;;;;9.68;3.20;;;15.10;87.40;;;;;;4954788;28;20047;-66
2023/07/03 00:11:02;;;;;;;11.18;3.58;;;15.10;87.10;;;;;;4968759;28;20053;-66
2023/07/03 00:13:29;;;;;;;12.48;3.35;;;15.10;86.30;;;;;;4966042;28;20043;-66
2023/07/03 00:16:03;;;;;;;7.15;3.33;;;15.10;86.60;;;;;;4952725;28;20042;-66
2023/07/03 00:18:29;;;;;;;5.47;2.20;;;15.10;85.90;;;;;;4969167;28;20452;-66
2023/07/03 00:20:55;;;;;;;11.82;3.10;;;15.10;85.40;;;;;;4966255;28;20494;-66
2023/07/03 00:23:22;;;;;;;10.60;3.70;;;15.10;84.90;;;;;;4986281;28;20081;-66
2023/07/03 00:25:49;;;;;;;9.73;2.75;;;15.10;84.10;;;;;;4986015;28;20485;-66
2023/07/03 00:28:15;;;;;;;11.10;2.83;;;15.10;84.00;;;;;;4985670;28;20049;-66
2023/07/03 00:30:41;;;;;;;7.32;2.70;;;15.10;83.80;;;;;;4986508;28;20046;-66
2023/07/03 00:33:06;;;;;;;10.07;2.50;;;15.10;83.30;;;;;;4975665;28;20042;-66
2023/07/03 00:35:32;;;;;;;10.32;3.03;;;15.10;82.60;;;;;;4985829;28;20093;-67
2023/07/03 00:37:58;;;;;;;11.85;2.42;;;15.10;82.10;;;;;;4972580;28;20049;-66
2023/07/03 00:40:24;;;;;;;9.25;2.88;;;15.10;81.50;;;;;;4967825;28;20132;-66
2023/07/03 00:42:52;;;;;;;17.70;3.28;;;15.10;80.20;;;;;;4985802;28;20051;-66
2023/07/03 00:45:21;;;;;;;11.65;3.28;;;15.10;79.30;;;;;;4954294;28;20062;-67
2023/07/03 00:47:48;;;;;;;10.07;2.57;;;15.10;78.70;;;;;;4953363;28;20085;-66
2023/07/03 00:50:14;;;;;;;9.63;3.72;;;15.10;78.60;;;;;;4965878;28;20098;-67
2023/07/03 00:52:41;;;;;;;5.72;2.55;;;15.20;77.50;;;;;;4986685;28;20105;-66
2023/07/03 00:55:10;;;;;;;10.82;2.78;;;15.20;77.00;;;;;;4967305;28;20052;-67
2023/07/03 00:57:36;;;;;;;13.85;3.67;;;15.20;77.00;;;;;;4986079;28;20555;-66
2023/07/03 01:00:03;;;;;;;8.32;3.15;;;15.20;76.90;;;;;;4983848;28;20054;-67
2023/07/03 01:02:58;;;;;;;12.40;3.05;;;15.20;78.00;;;;;;4985878;28;20035;-66
2023/07/03 01:05:34;;;;;;;10.98;2.50;;;15.20;78.10;;;;;;4986426;28;20058;-66
2023/07/03 01:08:00;;;;;;;10.55;4.78;;;15.20;78.70;;;;;;4985483;28;20042;-66
2023/07/03 01:10:29;;;;;;;10.95;3.42;;;15.30;78.50;;;;;;4974360;28;20042;-66
2023/07/03 01:13:01;;;;;;;9.05;2.72;;;15.30;78.80;;;;;;4950798;28;20340;-66
2023/07/03 01:15:32;;;;;;;18.20;2.88;;;15.30;79.50;;;;;;4977408;28;20121;-66
2023/07/03 01:18:01;;;;;;;10.55;2.90;;;15.30;79.10;;;;;;4986369;28;20043;-66
2023/07/03 01:20:32;;;;;;;13.48;3.45;;;15.30;79.90;;;;;;4983831;28;20050;-67
2023/07/03 01:23:13;;;;;;;13.35;3.20;;;15.30;79.70;;;;;;4948096;28;20066;-67
2023/07/03 01:25:42;;;;;;;12.77;2.83;;;15.30;79.00;;;;;;4978027;28;20117;-67
2023/07/03 01:28:11;;;;;;;10.35;2.80;;;15.30;77.10;;;;;;4968392;28;20501;-67
2023/07/03 01:30:40;;;;;;;9.57;3.40;;;15.40;76.70;;;;;;4985332;28;20580;-66
2023/07/03 01:33:09;;;;;;;6.45;2.22;;;15.40;76.40;;;;;;4985084;28;20038;-66
2023/07/03 01:35:36;;;;;;;10.88;2.70;;;15.40;76.40;;;;;;4989863;28;20461;-67
2023/07/03 01:38:04;;;;;;;7.22;2.55;;;15.40;76.30;;;;;;4970447;28;20572;-66
2023/07/03 01:40:31;;;;;;;13.10;2.80;;;15.40;76.70;;;;;;4972554;28;20042;-66
2023/07/03 01:42:57;;;;;;;10.15;2.55;;;15.40;77.70;;;;;;4970123;28;20061;-67
2023/07/03 01:45:25;;;;;;;8.25;2.28;;;15.30;77.80;;;;;;4989575;28;20469;-66
2023/07/03 01:47:51;;;;;;;8.15;2.50;;;15.30;77.90;;;;;;4971435;28;20200;-66
2023/07/03 01:50:22;;;;;;;11.32;2.78;;;15.30;78.00;;;;;;4953995;28;20138;-67
2023/07/03 01:52:57;;;;;;;12.55;2.63;;;15.30;78.50;;;;;;4954597;28;20114;-66
2023/07/03 01:55:35;;;;;;;13.05;2.58;;;15.30;78.00;;;;;;4970173;28;20046;-67
2023/07/03 01:58:32;;;;;;;12.10;3.03;;;15.30;78.00;;;;;;4971593;28;20046;-66
2023/07/03 02:01:05;;;;;;;14.00;2.88;;;15.30;78.70;;;;;;4978100;28;20520;-66
2023/07/03 02:03:44;;;;;;;9.18;2.72;;;15.30;78.60;;;;;;4988251;28;20981;-66
2023/07/03 02:06:21;;;;;;;8.50;2.60;;;15.30;78.40;;;;;;4971795;28;20054;-66
2023/07/03 02:08:49;;;;;;;11.98;2.95;;;15.30;77.90;;;;;;4987125;28;20035;-66
2023/07/03 02:11:20;;;;;;;10.63;2.42;;;15.30;77.60;;;;;;4983146;28;20043;-66
2023/07/03 02:13:46;;;;;;;11.23;2.50;;;15.30;77.60;;;;;;4981273;28;20129;-67
2023/07/03 02:16:12;;;;;;;9.43;2.08;;;15.30;78.40;;;;;;4988081;28;20154;-67
2023/07/03 02:18:37;;;;;;;5.63;2.10;;;15.30;77.60;;;;;;4952251;28;20085;-67
2023/07/03 02:21:07;;;;;;;12.00;2.67;;;15.20;77.10;;;;;;4965736;28;20054;-66
2023/07/03 02:23:33;;;;;;;10.48;2.00;;;15.30;77.10;;;;;;4952628;28;20094;-66
2023/07/03 02:25:59;;;;;;;13.13;3.80;;;15.30;76.10;;;;;;4982779;28;20042;-66
2023/07/03 02:28:25;;;;;;;8.98;2.47;;;15.20;75.10;;;;;;4971057;28;20078;-66
2023/07/03 02:30:51;;;;;;;12.38;2.35;;;15.20;74.70;;;;;;4987808;28;20081;-66
2023/07/03 02:33:18;;;;;;;10.38;2.50;;;15.20;74.20;;;;;;4982138;28;20047;-66
2023/07/03 02:35:43;;;;;;;7.75;2.42;;;15.10;74.60;;;;;;4978865;28;20050;-67
2023/07/03 02:38:10;;;;;;;9.23;2.40;;;15.10;75.00;;;;;;4987479;28;20041;-66
2023/07/03 02:40:37;;;;;;;11.88;2.90;;;15.10;75.10;;;;;;4989152;28;20362;-66
2023/07/03 02:43:03;;;;;;;5.63;2.55;;;15.00;75.60;;;;;;4984888;28;20062;-66
2023/07/03 02:45:38;;;;;;;10.95;2.50;;;14.90;75.90;;;;;;4969894;28;20501;-67
2023/07/03 02:48:04;;;;;;;12.50;2.80;;;14.90;76.60;;;;;;4969816;28;20076;-67
2023/07/03 02:50:29;;;;;;;8.65;2.50;;;14.80;77.70;;;;;;4970743;28;20050;-66
2023/07/03 02:52:55;;;;;;;9.18;2.42;;;14.80;78.30;;;;;;4965204;28;20039;-66
2023/07/03 02:55:21;;;;;;;5.93;2.22;;;14.70;78.60;;;;;;4986396;28;20042;-67
2023/07/03 02:57:46;;;;;;;8.65;2.20;;;14.60;79.10;;;;;;4988279;28;20097;-67
2023/07/03 03:00:13;;;;;;;8.05;2.05;;;14.60;79.60;;;;;;4986845;28;20038;-66
2023/07/03 03:02:39;;;;;;;9.68;2.10;;;14.50;80.20;;;;;;4988261;28;20050;-66
2023/07/03 03:05:05;;;;;;;8.75;2.53;;;14.50;80.50;;;;;;4985996;28;20394;-66
2023/07/03 03:07:31;;;;;;;10.90;2.90;;;14.50;81.00;;;;;;4967286;28;20049;-67
2023/07/03 03:09:57;;;;;;;9.93;2.45;;;14.40;81.60;;;;;;4971393;28;20042;-66
2023/07/03 03:12:23;;;;;;;4.47;1.65;;;14.40;81.10;;;;;;4947594;28;20054;-66
2023/07/03 03:14:49;;;;;;;6.32;2.00;;;14.40;80.70;;;;;;4985791;28;20420;-66
2023/07/03 03:17:14;;;;;;;10.88;2.55;;;14.30;80.50;;;;;;4986981;28;20043;-67
2023/07/03 03:19:40;;;;;;;12.18;2.20;;;14.30;79.70;;;;;;4980024;28;20069;-66
2023/07/03 03:22:05;;;;;;;6.80;1.65;;;14.30;79.70;;;;;;4986118;28;20042;-67
2023/07/03 03:24:31;;;;;;;5.95;1.77;;;14.30;79.10;;;;;;4984955;28;20034;-67
2023/07/03 03:26:58;;;;;;;6.40;1.80;;;14.30;78.70;;;;;;4968725;28;20101;-66
2023/07/03 03:29:24;;;;;;;5.28;1.73;;;14.30;78.30;;;;;;4987240;28;20130;-66
2023/07/03 03:31:50;;;;;;;6.82;2.20;;;14.30;77.70;;;;;;4970058;28;20125;-66
2023/07/03 03:34:15;;;;;;;5.65;1.67;;;14.30;77.00;;;;;;4967855;28;20518;-67
2023/07/03 03:36:42;;;;;;;5.55;1.85;;;14.30;76.70;;;;;;4987672;28;20058;-66
2023/07/03 03:39:09;;;;;;;8.45;2.00;;;14.20;76.10;;;;;;4948994;28;20043;-67
2023/07/03 03:41:34;;;;;;;5.75;1.77;;;14.30;76.40;;;;;;4967956;28;20050;-67
2023/07/03 03:44:00;;;;;;;4.90;1.70;;;14.20;75.10;;;;;;4985928;28;20057;-67
2023/07/03 03:46:28;;;;;;;7.50;1.77;;;14.20;73.90;;;;;;4940476;28;20074;-67
2023/07/03 03:48:53;;;;;;;9.80;1.63;;;14.20;73.00;;;;;;4986581;28;20485;-67
2023/07/03 03:51:19;;;;;;;5.35;1.77;;;14.30;72.60;;;;;;4933591;28;20137;-67
2023/07/03 03:53:45;;;;;;;11.43;1.55;;;14.30;72.00;;;;;;4969556;28;20053;-67
2023/07/03 03:56:10;;;;;;;9.48;2.10;;;14.30;70.50;;;;;;4976047;28;20101;-66
2023/07/03 03:58:36;;;;;;;6.80;1.58;;;14.30;69.40;;;;;;4985624;28;20046;-67
2023/07/03 04:01:02;;;;;;;6.30;1.77;;;14.30;70.40;;;;;;4967994;28;20077;-67
2023/07/03 04:03:28;;;;;;;8.00;1.92;;;14.30;67.70;;;;;;4987061;28;20539;-67
2023/07/03 04:05:53;;;;;;;10.18;1.92;;;14.40;67.80;;;;;;4966606;28;20058;-67
2023/07/03 04:08:19;;;;;;;12.48;1.80;;;14.40;67.20;;;;;;4952461;28;20517;-66
2023/07/03 04:10:46;;;;;;;8.38;1.67;;;14.40;67.70;;;;;;4973292;28;20035;-67
2023/07/03 04:13:12;;;;;;;5.20;1.02;;;14.40;66.30;;;;;;4985527;28;20046;-67
2023/07/03 04:15:56;;;;;;;3.60;1.30;;;14.40;65.10;;;;;;4969690;28;20582;-67
2023/07/03 04:18:23;;;;;;;6.32;1.45;;;14.50;65.40;;;;;;4967149;28;20226;-66
2023/07/03 04:20:51;;;;;;;5.35;1.58;;;14.50;65.00;;;;;;4987059;28;20393;-66
2023/07/03 04:23:18;;;;;;;5.32;1.40;;;14.50;65.30;;;;;;4985890;28;20078;-68
2023/07/03 04:25:44;;;;;;;6.97;1.55;;;14.50;65.60;;;;;;4968776;28;20054;-68
2023/07/03 04:28:15;;;;;;;12.48;1.65;;;14.60;65.10;;;;;;4977860;28;20045;-66
2023/07/03 04:30:40;;;;;;;6.28;1.60;;;14.60;64.80;;;;;;4951940;28;20595;-67
2023/07/03 04:33:06;;;;;;;5.80;1.15;;;14.60;64.30;;;;;;4986171;28;20053;-67
2023/07/03 04:35:32;;;;;;;8.98;1.77;;;14.60;65.90;;;;;;4985446;28;20397;-67
2023/07/03 04:38:01;;;;;;;10.05;2.00;;;14.60;64.20;;;;;;4962439;28;20055;-67
2023/07/03 04:40:27;;;;;;;7.72;1.60;;;14.60;63.80;;;;;;4985521;28;20121;-67
2023/07/03 04:42:53;;;;;;;8.13;1.90;;;14.60;64.50;;;;;;4955175;28;20090;-68
2023/07/03 04:45:21;;;;;;;6.25;1.58;;;14.60;64.10;;;;;;4968264;28;20584;-66
2023/07/03 04:47:50;;;;;;;4.10;1.17;;;14.70;65.00;;;;;;4968039;28;20046;-66
2023/07/03 04:50:16;;;;;;;7.10;1.95;;;14.70;65.80;;;;;;4986411;28;20038;-67
2023/07/03 04:52:43;;;;;;;10.63;2.00;;;14.80;65.90;;;;;;4985297;28;20052;-67
2023/07/03 04:55:11;;;;;;;7.45;1.70;;;14.80;65.20;;;;;;4986233;28;20034;-67
2023/07/03 04:57:38;;;;;;;7.88;1.40;;;14.90;65.60;;;;;;4967323;28;20046;-66
2023/07/03 05:00:14;;;;;;;6.18;1.95;;;15.00;65.00;;;;;;4967017;28;20047;-66
2023/07/03 05:02:45;;;;;;;6.22;1.58;;;15.00;64.00;;;;;;4986265;28;20065;-67
2023/07/03 05:05:12;;;;;;;5.82;1.77;;;15.10;64.10;;;;;;4985054;28;20038;-67
2023/07/03 05:07:39;;;;;;;11.45;2.13;;;15.10;64.90;;;;;;4982497;28;20181;-67
2023/07/03 05:10:06;;;;;;;9.00;1.67;;;15.20;64.90;;;;;;4955565;28;20150;-67
2023/07/03 05:12:32;;;;;;;10.30;1.75;;;15.10;64.10;;;;;;4987192;28;20053;-67
2023/07/03 05:14:58;;;;;;;6.68;1.80;;;15.10;62.90;;;;;;4988806;28;20042;-68
2023/07/03 05:17:24;;;;;;;9.35;1.95;;;15.10;65.20;;;;;;4983865;28;20057;-67
2023/07/03 05:19:50;;;;;;;6.15;1.67;;;15.00;65.20;;;;;;4968686;28;20406;-67
2023/07/03 05:22:16;;;;;;;6.68;1.27;;;15.10;66.30;;;;;;4981672;28;20038;-66
2023/07/03 05:24:41;;;;;;;7.72;1.88;;;15.00;67.10;;;;;;4969010;28;20075;-67
2023/07/03 05:27:07;;;;;;;8.23;1.90;;;15.10;69.80;;;;;;4962212;28;20519;-66
2023/07/03 05:29:33;;;;;;;6.47;1.45;;;15.10;68.50;;;;;;4989635;28;20042;-67
2023/07/03 05:32:00;;;;;;;9.55;2.03;;;15.20;69.80;;;;;;4975214;28;20042;-67
2023/07/03 05:34:27;;;;;;;10.63;2.50;;;15.30;70.30;;;;;;4984696;28;20050;-67
2023/07/03 05:36:53;;;;;;;8.23;1.90;;;15.30;69.20;;;;;;4986015;28;20044;-67
2023/07/03 05:39:19;;;;;;;7.30;1.50;;;15.40;68.60;;;;;;4951875;28;20062;-66
2023/07/03 05:41:46;;;;;;;5.80;1.48;;;15.50;70.50;;;;;;4982064;28;20065;-67
2023/07/03 05:44:11;;;;;;;5.40;1.77;;;15.50;69.20;;;;;;4966149;28;20050;-66
2023/07/03 05:46:37;;;;;;;4.78;1.30;;;15.60;70.70;;;;;;4972392;28;20055;-67
2023/07/03 05:49:03;;;;;;;7.63;1.75;;;15.70;68.40;;;;;;4986547;28;20054;-67
2023/07/03 05:51:28;;;;;;;8.07;1.73;;;15.80;69.40;;;;;;4989362;28;20523;-67
2023/07/03 05:53:55;;;;;;;10.43;1.67;;;15.90;66.70;;;;;;4955149;28;20201;-67
2023/07/03 05:56:21;;;;;;;9.75;1.27;;;16.00;65.60;;;;;;4971056;28;20057;-67
2023/07/03 05:58:46;;;;;;;10.38;1.73;;;16.00;64.90;;;;;;4960092;28;20054;-66
2023/07/03 06:01:13;;;;;;;9.40;1.60;;;16.10;65.90;;;;;;4987883;28;20050;-66
2023/07/03 06:03:42;;;;;;;7.68;1.63;;;16.20;62.80;;;;;;4989197;28;20552;-67
2023/07/03 06:06:08;;;;;;;;;;;16.20;65.40;;;;;;4970781;28;20085;-67
2023/07/03 06:08:34;;;;;;;6.00;1.83;;;16.20;65.20;;;;;;4969496;28;20015;-67
2023/07/03 06:11:00;;;;;;;9.32;1.45;;;16.30;60.50;;;;;;4956469;28;20042;-67
2023/07/03 06:13:26;;;;;;;7.07;1.60;;;16.30;60.90;;;;;;4986333;28;20523;-67
2023/07/03 06:15:53;;;;;;;7.28;1.20;;;16.40;60.50;;;;;;4955025;28;20505;-67
2023/07/03 06:18:19;;;;;;;7.13;1.48;;;16.40;62.30;;;;;;4970219;28;20181;-67
2023/07/03 06:20:44;;;;;;;4.82;1.20;;;16.40;55.30;;;;;;4966563;28;20130;-66
2023/07/03 06:23:11;;;;;;;7.80;1.67;;;16.40;55.40;;;;;;4987458;28;20049;-66
2023/07/03 06:25:37;;;;;;;4.72;1.50;;;16.40;51.50;;;;;;4971577;28;20174;-67
2023/07/03 06:28:03;;;;;;;7.38;1.38;;;16.40;46.80;;;;;;4986971;28;20125;-68
2023/07/03 06:30:29;;;;;;;8.07;1.40;;;16.30;47.80;;;;;;4970842;28;20054;-67
2023/07/03 06:32:54;;;;;;;4.88;1.20;;;16.30;50.10;;;;;;4986069;28;20117;-67
2023/07/03 06:35:20;;;;;;;6.00;1.40;;;16.20;51.60;;;;;;4987752;28;20509;-67
2023/07/03 06:37:46;;;;;;;3.60;1.35;;;16.20;58.20;;;;;;4969490;28;20045;-68
2023/07/03 06:40:14;;;;;;;5.25;1.13;;;16.20;61.40;;;;;;4955482;28;20545;-67
2023/07/03 06:42:40;;;;;;;5.15;1.85;;;16.30;61.10;;;;;;4963635;28;20050;-67
2023/07/03 06:45:06;;;;;;;5.25;1.05;;;16.40;58.90;;;;;;4961590;28;20058;-67
2023/07/03 06:47:32;;;;;;;8.98;1.00;;;16.40;57.50;;;;;;4969773;28;20136;-67
2023/07/03 06:49:58;;;;;;;4.60;1.35;;;16.50;56.70;;;;;;4986323;28;20185;-67
2023/07/03 06:52:24;;;;;;;5.65;1.20;;;16.60;56.80;;;;;;4987356;28;20042;-66
2023/07/03 06:54:49;;;;;;;9.27;1.85;;;16.60;59.80;;;;;;4967993;28;20058;-67
2023/07/03 06:57:15;;;;;;;6.75;1.50;;;16.70;55.80;;;;;;4961548;28;20046;-67
2023/07/03 06:59:41;;;;;;;3.40;1.20;;;16.80;54.20;;;;;;4987041;28;20739;-68
2023/07/03 07:02:07;;;;;;;5.88;1.38;;;16.90;54.60;;;;;;4969350;28;20112;-67
2023/07/03 07:04:33;;;;;;;7.82;1.30;;;17.00;47.00;;;;;;4954093;28;20106;-68
2023/07/03 07:06:59;;;;;;;9.18;1.73;;;17.10;47.00;;;;;;4968779;28;20080;-67
2023/07/03 07:09:25;;;;;;;12.50;1.70;;;17.30;47.30;;;;;;4962226;28;20132;-66
2023/07/03 07:11:50;;;;;;;5.05;1.30;;;17.40;38.10;;;;;;4967710;28;20169;-68
2023/07/03 07:14:17;;;;;;;7.57;1.80;;;17.40;32.70;;;;;;4962302;28;20045;-67
2023/07/03 07:16:43;;;;;;;7.03;1.55;;;17.30;35.10;;;;;;4950629;28;20110;-66
2023/07/03 07:19:11;;;;;;;6.38;1.73;;;17.30;36.10;;;;;;4967353;28;20058;-67
2023/07/03 07:21:39;;;;;;;6.63;1.50;;;17.10;34.60;;;;;;4968356;28;20058;-67
2023/07/03 07:24:15;;;;;;;6.88;1.80;;;16.90;41.30;;;;;;4950684;28;20050;-67
2023/07/03 07:26:43;;;;;;;3.53;1.33;;;16.70;43.10;;;;;;4959114;28;20055;-67
2023/07/03 07:29:09;;;;;;;4.60;1.38;;;16.50;40.00;;;;;;4961261;28;20502;-66
2023/07/03 07:31:38;;;;;;;7.57;1.20;;;16.40;51.90;;;;;;4952617;28;20108;-66
2023/07/03 07:34:05;;;;;;;2.85;1.02;;;16.40;64.10;;;;;;4956930;28;20042;-67
2023/07/03 07:36:31;;;;;;;5.15;1.27;;;16.40;70.80;;;;;;4955218;28;20509;-67
2023/07/03 07:38:59;;;;;;;3.92;0.98;;;16.40;73.50;;;;;;4942661;28;20050;-67
2023/07/03 07:41:25;;;;;;;4.47;1.15;;;16.50;74.00;;;;;;4967638;28;20061;-67
2023/07/03 07:43:52;;;;;;;8.07;1.60;;;16.50;71.70;;;;;;4968181;28;20453;-68
2023/07/03 07:46:19;;;;;;;6.32;1.33;;;16.50;71.30;;;;;;4967406;28;20062;-68
2023/07/03 07:48:47;;;;;;;4.88;1.30;;;16.40;70.40;;;;;;4960952;28;20065;-67
2023/07/03 07:51:13;;;;;;;7.00;1.35;;;16.40;71.30;;;;;;4955015;28;20428;-67
2023/07/03 07:53:39;;;;;;;6.25;0.93;;;16.40;73.70;;;;;;4973124;28;20047;-67
2023/07/03 07:56:10;;;;;;;5.43;0.90;;;16.80;77.90;;;;;;4968087;28;20039;-67
2023/07/03 07:58:36;;;;;;;7.53;1.08;;;17.50;79.60;;;;;;4967412;28;20051;-66
2023/07/03 08:01:03;;;;;;;6.22;1.30;;;18.00;72.80;;;;;;4971164;28;20164;-67
2023/07/03 08:03:29;;;;;;;4.72;1.17;;;18.20;51.00;;;;;;4967764;28;20045;-67
2023/07/03 08:06:00;;;;;;;3.25;1.38;;;18.10;41.10;;;;;;4969094;28;20050;-67
2023/07/03 08:08:27;;;;;;;5.10;1.10;;;18.10;40.20;;;;;;4974669;28;20042;-67
2023/07/03 08:10:57;;;;;;;4.70;1.00;;;18.30;45.60;;;;;;4942033;28;20061;-66
2023/07/03 08:13:24;;;;;;;6.20;1.40;;;18.70;44.80;;;;;;4950316;28;20069;-67
2023/07/03 08:15:51;;;;;;;5.68;1.30;;;18.70;32.60;;;;;;4961820;28;20051;-67
2023/07/03 08:18:18;;;;;;;3.65;1.10;;;18.70;30.90;;;;;;4983977;28;20046;-67
2023/07/03 08:20:44;;;;;;;5.65;0.90;;;18.60;35.20;;;;;;4966355;28;20393;-68
2023/07/03 08:23:11;;;;;;;3.97;1.00;;;18.50;32.70;;;;;;4968598;28;20512;-67
2023/07/03 08:25:37;;;;;;;3.38;1.67;;;18.30;28.00;;;;;;4968358;28;20061;-66
2023/07/03 08:28:04;;;;;;;2.50;0.70;;;18.30;26.40;;;;;;4943852;28;20057;-67
2023/07/03 08:30:30;;;;;;;2.92;1.00;;;18.40;28.90;;;;;;4939811;28;20059;-68
2023/07/03 08:32:56;;;;;;;9.10;1.23;;;18.70;26.70;;;;;;4982915;28;20680;-67
2023/07/03 08:35:22;;;;;;;4.22;1.00;;;18.80;15.90;;;;;;4986484;28;20042;-67
2023/07/03 08:37:48;;;;;;;3.35;1.00;;;18.60;18.70;;;;;;4938997;28;20046;-67
2023/07/03 08:40:21;;;;;;;6.93;1.30;;;18.60;22.30;;;;;;4968851;28;20058;-67
2023/07/03 08:42:47;;;;;;;5.82;1.30;;;18.60;30.00;;;;;;4961830;28;20506;-67
2023/07/03 08:45:17;;;;;;;1.42;0.77;;;18.60;18.90;;;;;;4949426;29;20059;-67
2023/07/03 08:47:45;;;;;;;4.95;1.33;;;18.50;18.50;;;;;;4945058;28;20461;-67
2023/07/03 08:50:16;;;;;;;2.55;0.80;;;18.50;23.30;;;;;;4968230;28;20117;-67
2023/07/03 08:53:10;;;;;;;7.53;1.38;;;18.60;28.30;;;;;;4963805;28;20066;-67
2023/07/03 08:55:43;;;;;;;4.55;1.33;;;18.70;27.90;;;;;;4968147;28;20062;-67
2023/07/03 08:58:09;;;;;;;5.20;1.50;;;18.70;26.00;;;;;;4955074;28;20054;-67
2023/07/03 09:00:47;;;;;;;4.60;1.70;;;18.40;23.80;;;;;;4967962;28;20121;-67
2023/07/03 09:03:30;;;;;;;5.10;1.20;;;18.30;14.40;;;;;;4953136;28;20124;-67
2023/07/03 09:06:03;;;;;;;5.75;1.15;;;18.00;29.80;;;;;;4975112;28;20065;-67
2023/07/03 09:09:06;;;;;;;6.75;1.42;;;17.80;22.70;;;;;;4965309;28;20477;-67
2023/07/03 09:11:38;;;;;;;3.08;0.77;;;17.90;10.40;;;;;;4976134;28;20046;-67
2023/07/03 09:14:08;;;;;;;5.30;1.75;;;17.80;1.00;;;;;;4965414;28;20051;-67
2023/07/03 09:16:35;;;;;;;1.00;0.40;;;17.50;1.00;;;;;;4958515;28;20521;-68
2023/07/03 09:19:04;;;;;;;3.33;0.80;;;17.60;1.00;;;;;;4948700;28;20069;-67
2023/07/03 09:21:30;;;;;;;;;;;17.60;1.00;;;;;;4988143;28;20462;-68
2023/07/03 09:24:02;;;;;;;1.52;0.75;;;17.80;1.00;;;;;;4979548;28;19957;-68
2023/07/03 09:26:43;;;;;;;5.00;1.20;;;18.20;1.00;;;;;;4970381;28;20109;-67
2023/07/03 09:29:11;;;;;;;0.90;0.45;;;18.70;1.00;;;;;;4954886;28;20282;-66
2023/07/03 09:31:37;;;;;;;6.03;1.23;;;19.00;1.00;;;;;;4981144;28;20093;-67
2023/07/03 09:34:03;;;;;;;1.48;0.65;;;19.10;1.00;;;;;;4951332;28;20038;-68
2023/07/03 09:36:35;;;;;;;3.63;0.93;;;19.10;1.00;;;;;;4967045;28;20047;-67
2023/07/03 09:39:13;;;;;;;4.25;0.73;;;18.70;1.00;;;;;;4965148;28;20060;-68
2023/07/03 09:41:40;;;;;;;3.33;0.95;;;18.40;1.00;;;;;;4952347;28;20058;-68
2023/07/03 09:44:17;;;;;;;1.73;0.70;;;18.00;1.00;;;;;;4969972;28;20046;-68
2023/07/03 09:46:46;;;;;;;0.90;0.40;;;17.70;1.00;;;;;;4963808;28;20599;-68
2023/07/03 09:49:28;;;;;;;5.63;0.75;;;17.60;1.00;;;;;;4970226;28;20126;-67
2023/07/03 09:51:58;;;;;;;1.25;0.63;;;17.50;1.00;;;;;;4951315;28;20046;-67
2023/07/03 09:54:27;;;;;;;0.85;0.32;;;17.50;1.00;;;;;;4975542;28;20591;-68
2023/07/03 09:56:54;;;;;;;3.17;0.73;;;17.50;1.00;;;;;;4965061;28;20333;-67
2023/07/03 09:59:22;;;;;;;1.52;0.77;;;17.50;1.00;;;;;;4956783;28;20377;-69
2023/07/03 10:01:55;;;;;;;2.55;0.65;;;17.60;1.00;;;;;;4971234;28;20051;-68
2023/07/03 10:04:21;;;;;;;2.17;0.60;;;18.00;1.00;;;;;;4973075;28;20086;-67
2023/07/03 10:07:05;;;;;;;8.88;1.00;;;18.40;1.00;;;;;;4963460;28;20213;-67
2023/07/03 10:09:34;;;;;;;4.65;0.73;;;18.80;1.00;;;;;;4951243;28;20051;-67
2023/07/03 10:12:10;;;;;;;1.65;0.55;;;19.00;1.00;;;;;;4982083;28;20046;-67
2023/07/03 10:14:57;;;;;;;0.73;0.30;;;18.90;1.00;;;;;;4986587;28;20083;-68
2023/07/03 10:17:41;;;;;;;3.72;0.80;;;18.80;1.00;;;;;;4987214;28;20493;-67
2023/07/03 10:20:15;;;;;;;2.63;0.70;;;18.50;1.00;;;;;;4986597;28;20497;-67
2023/07/03 10:22:42;;;;;;;3.03;0.70;;;18.30;1.00;;;;;;4970274;28;20102;-67
2023/07/03 10:25:15;;;;;;;0.73;0.50;;;18.20;1.00;;;;;;4955222;28;20058;-68
2023/07/03 10:27:41;;;;;;;3.03;0.80;;;18.10;1.00;;;;;;4951550;28;20059;-68
2023/07/03 10:30:15;;;;;;;2.35;0.70;;;18.10;1.00;;;;;;4956774;28;20049;-67
2023/07/03 10:32:43;;;;;;;2.50;0.80;;;17.90;1.00;;;;;;4952969;28;20047;-68
2023/07/03 10:35:11;;;;;;;2.60;0.75;;;17.90;1.00;;;;;;4969859;28;20489;-67
2023/07/03 10:37:47;;;;;;;1.15;0.45;;;17.80;1.00;;;;;;4958294;28;20069;-67
2023/07/03 10:40:19;;;;;;;2.22;0.70;;;17.80;1.00;;;;;;4969036;28;20051;-69
2023/07/03 10:42:51;;;;;;;4.28;0.70;;;17.70;1.00;;;;;;4949789;28;20059;-67
2023/07/03 10:45:18;;;;;;;2.03;0.30;;;17.60;1.00;;;;;;4971773;28;20504;-69
2023/07/03 10:47:54;;;;;;;1.30;0.38;;;17.50;1.00;;;;;;4957949;28;20596;-68
2023/07/03 10:50:27;;;;;;;1.38;0.30;;;17.20;1.00;;;;;;4974368;28;20393;-68
2023/07/03 10:53:12;;;;;;;1.60;0.55;;;17.20;1.00;;;;;;4960417;28;20058;-67
2023/07/03 10:56:06;;;;;;;1.05;0.35;;;17.00;1.00;;;;;;4955077;28;20042;-68
2023/07/03 10:59:00;;;;;;;2.40;0.40;;;16.90;1.00;;;;;;4951293;28;20050;-68
2023/07/03 11:01:49;;;;;;;1.75;0.52;;;16.80;1.00;;;;;;4960606;28;20054;-67
2023/07/03 11:04:31;;;;;;;1.30;0.50;;;16.80;1.00;;;;;;4967423;28;20047;-67
2023/07/03 11:07:13;;;;;;;0.85;0.32;;;16.90;1.00;;;;;;4955622;28;20400;-68
2023/07/03 11:09:49;;;;;;;3.85;0.98;;;17.00;1.00;;;;;;4967108;28;20050;-67
2023/07/03 11:12:29;;;;;;;1.63;0.40;;;17.10;1.00;;;;;;4968248;28;20050;-67
2023/07/03 11:15:46;;;;;;;2.65;0.70;;;17.20;1.00;;;;;;4941361;28;20054;-67
2023/07/03 11:18:21;;;;;;;0.95;0.50;;;17.40;1.00;;;;;;4922907;29;20135;-67
2023/07/03 11:21:05;;;;;;;1.85;1.10;;;17.40;1.00;;;;;;4926610;29;20135;-68
2023/07/03 11:23:37;;;;;;;0.40;0.38;;;17.20;1.00;;;;;;4927772;28;20145;-68
2023/07/03 11:26:19;;;;;;;0.82;0.30;;;17.20;1.00;;;;;;4966139;28;20046;-67
2023/07/03 11:28:49;;;;;;;1.10;0.60;;;17.10;1.00;;;;;;4975366;28;20058;-68
2023/07/03 11:31:16;;;;;;;9.35;0.75;;;17.00;1.00;;;;;;4950953;28;20051;-68
2023/07/03 11:33:42;;;;;;;2.47;0.52;;;17.10;1.00;;;;;;4960340;28;20045;-67
2023/07/03 11:36:36;;;;;;;1.33;0.73;;;17.20;1.00;;;;;;4965854;28;20405;-68
2023/07/03 11:39:15;;;;;;;3.75;0.68;;;17.30;1.00;;;;;;4947360;28;20451;-67
2023/07/03 11:41:59;;;;;;;1.60;0.80;;;17.40;1.00;;;;;;4948632;28;20408;-68
2023/07/03 11:44:48;;;;;;;2.45;0.90;;;17.70;1.00;;;;;;4947086;28;20397;-69
2023/07/03 11:47:25;;;;;;;5.03;1.05;;;18.10;1.00;;;;;;4946461;28;20077;-68
2023/07/03 11:49:52;;;;;;;2.85;0.70;;;18.40;1.00;;;;;;4944049;28;20062;-68
2023/07/03 11:52:34;;;;;;;3.83;1.48;;;18.60;1.00;;;;;;4941881;28;20102;-68
2023/07/03 11:55:05;;;;;;;8.85;1.17;;;18.90;1.00;;;;;;4944356;28;20413;-68
2023/07/03 11:57:37;;;;;;;4.40;0.80;;;19.00;1.00;;;;;;4956161;28;20042;-69
2023/07/03 12:00:16;;;;;;;2.80;0.70;;;18.70;1.00;;;;;;4933824;28;20087;-67
2023/07/03 12:02:51;;;;;;;3.45;0.80;;;18.50;1.00;;;;;;4955815;28;20055;-67
2023/07/03 12:05:45;;;;;;;2.95;0.85;;;18.60;1.00;;;;;;4949672;28;20055;-68
2023/07/03 12:08:22;;;;;;;6.35;1.10;;;18.50;1.00;;;;;;4930589;29;20898;-68
2023/07/03 12:10:54;;;;;;;1.17;0.25;;;18.40;1.00;;;;;;4930799;28;20143;-68
2023/07/03 12:13:34;;;;;;;2.10;0.90;;;18.30;1.00;;;;;;4953337;28;20055;-68
2023/07/03 12:16:04;;;;;;;2.30;0.50;;;18.20;1.00;;;;;;4964586;28;20054;-67
2023/07/03 12:18:31;;;;;;;5.30;1.00;;;18.10;1.00;;;;;;4966140;28;20045;-68
2023/07/03 12:20:59;;;;;;;1.27;0.47;;;18.00;1.00;;;;;;4949687;28;20046;-69
2023/07/03 12:23:40;;;;;;;1.75;0.43;;;17.80;1.00;;;;;;4966718;28;20046;-69
2023/07/03 12:26:09;;;;;;;1.98;0.70;;;17.70;1.00;;;;;;4944863;28;20133;-68
2023/07/03 12:28:36;;;;;;;2.45;0.60;;;17.70;1.00;;;;;;4950374;28;20061;-69
2023/07/03 12:31:21;;;;;;;7.50;0.65;;;17.60;1.00;;;;;;4965403;28;20549;-68
2023/07/03 12:33:50;;;;;;;1.55;0.70;;;17.60;1.00;;;;;;4940472;28;20337;-68
2023/07/03 12:36:19;;;;;;;;;;;17.70;1.00;;;;;;4946447;28;20133;-68
2023/07/03 12:38:45;;;;;;;3.55;0.82;;;17.80;1.00;;;;;;4949804;28;19941;-68
2023/07/03 12:41:11;;;;;;;1.92;0.60;;;17.80;1.00;;;;;;4966967;28;20490;-68
2023/07/03 12:43:37;;;;;;;2.03;0.77;;;17.90;1.00;;;;;;4929925;29;20102;-68
2023/07/03 12:46:03;;;;;;;3.25;0.68;;;18.00;1.00;;;;;;4959677;28;20492;-68
2023/07/03 12:48:29;;;;;;;2.65;0.77;;;18.20;1.00;;;;;;4947285;28;20484;-68
2023/07/03 12:50:56;;;;;;;4.53;0.73;;;18.30;1.00;;;;;;4950032;28;20121;-70
2023/07/03 12:53:23;;;;;;;3.38;0.80;;;18.30;1.00;;;;;;4948899;28;20470;-65
2023/07/03 12:55:55;;;;;;;4.25;0.70;;;18.40;1.00;;;;;;4947905;28;20161;-68
2023/07/03 12:58:24;;;;;;;1.33;0.68;;;18.20;1.00;;;;;;4967168;28;20102;-69
2023/07/03 13:01:08;;;;;;;2.42;0.68;;;18.00;1.00;;;;;;4966213;28;20597;-69